createdAt,value
2022-10-20T00:01:31.281Z,102347.00
2022-10-20T00:04:01.558Z,102352.03
2022-10-20T00:06:33.217Z,102352.84
2022-10-20T00:09:04.291Z,102347.56
2022-10-20T00:11:34.057Z,102352.66
2022-10-20T00:14:03.742Z,102357.97
2022-10-20T00:16:36.503Z,102352.03
2022-10-20T00:19:07.445Z,102356.19
2022-10-20T00:21:36.385Z,102356.22
2022-10-20T00:24:05.548Z,102346.56
2022-10-20T00:26:34.524Z,102342.09
2022-10-20T00:29:05.225Z,102331.88
2022-10-20T00:31:34.610Z,102325.94
2022-10-20T00:34:03.559Z,102331.56
2022-10-20T00:36:33.829Z,102335.22
2022-10-20T00:39:05.396Z,102345.59
2022-10-20T00:41:34.825Z,102335.97
2022-10-20T00:44:24.412Z,102336.84
2022-10-20T00:46:53.420Z,102340.31
2022-10-20T00:49:24.326Z,102327.63
2022-10-20T00:51:55.080Z,102321.50
2022-10-20T00:54:27.789Z,102319.75
2022-10-20T00:56:58.289Z,102314.25
2022-10-20T00:59:30.955Z,102313.59
2022-10-20T01:02:02.178Z,102312.00
2022-10-20T01:04:32.731Z,102310.41
2022-10-20T01:07:03.421Z,102312.13
2022-10-20T01:09:34.483Z,102298.72
2022-10-20T01:12:16.541Z,102293.50
2022-10-20T01:14:53.049Z,102286.72
2022-10-20T01:17:30.375Z,102286.72
2022-10-20T01:20:30.188Z,102292.78
2022-10-20T01:23:34.622Z,102286.59
2022-10-20T01:26:26.221Z,102281.09
2022-10-20T01:28:59.038Z,102271.13
2022-10-20T01:31:34.458Z,102269.28
2022-10-20T01:34:09.809Z,102271.91
2022-10-20T01:36:46.102Z,102272.56
2022-10-20T01:39:23.514Z,102275.72
2022-10-20T01:41:58.163Z,102271.81
2022-10-20T01:44:31.824Z,102266.81
2022-10-20T01:47:02.216Z,102257.28
2022-10-20T01:49:31.347Z,102248.22
2022-10-20T01:52:01.244Z,102249.25
2022-10-20T01:54:31.306Z,102240.63
2022-10-20T01:57:17.449Z,102238.84
2022-10-20T02:00:02.311Z,102236.84
2022-10-20T02:02:49.300Z,102239.44
2022-10-20T02:05:31.453Z,102242.88
2022-10-20T02:08:10.303Z,102234.47
2022-10-20T02:10:47.084Z,102222.44
2022-10-20T02:13:19.375Z,102212.03
2022-10-20T02:15:53.517Z,102217.28
2022-10-20T02:18:27.049Z,102212.16
2022-10-20T02:20:58.741Z,102208.88
2022-10-20T02:23:33.730Z,102205.25
2022-10-20T02:26:07.364Z,102208.84
2022-10-20T02:28:39.980Z,102196.78
2022-10-20T02:31:10.729Z,102194.31
2022-10-20T02:33:41.020Z,102189.47
2022-10-20T02:36:16.616Z,102173.09
2022-10-20T02:38:45.890Z,102175.53
2022-10-20T02:41:14.869Z,102171.22
2022-10-20T02:43:43.807Z,102175.53
2022-10-20T02:48:47.967Z,102171.19
2022-10-20T02:51:17.322Z,102171.91
2022-10-20T02:53:46.353Z,102170.31
2022-10-20T02:56:15.371Z,102178.03
2022-10-20T02:58:44.376Z,102182.47
2022-10-20T03:01:14.674Z,102174.13
2022-10-20T03:03:43.689Z,102188.03
2022-10-20T03:06:14.694Z,102184.66
2022-10-20T03:08:44.237Z,102184.66
2022-10-20T03:11:13.263Z,102182.94
2022-10-20T03:13:42.375Z,102172.84
2022-10-20T03:16:11.307Z,102176.34
2022-10-20T03:18:41.641Z,102161.78
2022-10-20T03:21:10.681Z,102164.47
2022-10-20T03:23:39.629Z,102169.84
2022-10-20T03:26:11.715Z,102161.59
2022-10-20T03:28:41.093Z,102161.59
2022-10-20T03:31:11.024Z,102158.88
2022-10-20T03:33:41.414Z,102156.50
2022-10-20T03:36:11.325Z,102158.44
2022-10-20T03:38:43.157Z,102162.06
2022-10-20T03:41:12.511Z,102154.44
2022-10-20T03:43:41.933Z,102163.94
2022-10-20T03:46:12.759Z,102159.53
2022-10-20T03:48:43.323Z,102158.06
2022-10-20T03:51:14.346Z,102146.88
2022-10-20T03:53:43.411Z,102152.91
2022-10-20T03:56:16.945Z,102149.47
2022-10-20T03:58:46.240Z,102145.06
2022-10-20T04:01:16.995Z,102145.19
2022-10-20T04:03:47.477Z,102140.00
2022-10-20T04:06:16.717Z,102136.78
2022-10-20T04:08:45.687Z,102135.91
2022-10-20T04:11:14.736Z,102134.47
2022-10-20T04:13:43.775Z,102136.94
2022-10-20T04:16:12.703Z,102136.31
2022-10-20T04:18:41.806Z,102131.75
2022-10-20T04:21:12.086Z,102137.13
2022-10-20T04:23:41.014Z,102135.56
2022-10-20T04:26:10.900Z,102129.50
2022-10-20T04:28:39.965Z,102133.59
2022-10-20T04:31:09.705Z,102134.34
2022-10-20T04:33:38.864Z,102125.66
2022-10-20T04:36:09.718Z,102124.97
2022-10-20T04:38:40.098Z,102121.66
2022-10-20T04:41:09.058Z,102118.31
2022-10-20T04:43:37.996Z,102118.88
2022-10-20T04:46:08.730Z,102118.09
2022-10-20T04:48:38.550Z,102119.56
2022-10-20T04:51:09.754Z,102113.56
2022-10-20T04:53:40.492Z,102104.88
2022-10-20T04:56:12.618Z,102094.38
2022-10-20T04:58:41.663Z,102090.88
2022-10-20T05:01:11.700Z,102082.38
2022-10-20T05:03:40.648Z,102078.75
2022-10-20T05:06:12.055Z,102076.16
2022-10-20T05:08:43.449Z,102072.53
2022-10-20T05:11:13.499Z,102081.31
2022-10-20T05:13:43.037Z,102072.66
2022-10-20T05:16:12.762Z,102071.97
2022-10-20T05:18:42.025Z,102070.16
2022-10-20T05:21:12.897Z,102062.44
2022-10-20T05:23:44.159Z,102059.78
2022-10-20T05:26:15.194Z,102056.28
2022-10-20T05:28:45.850Z,102049.34
2022-10-20T05:31:16.081Z,102032.13
2022-10-20T05:33:47.098Z,102029.78
2022-10-20T05:36:21.186Z,102017.25
2022-10-20T05:38:53.739Z,102020.22
2022-10-20T05:41:24.448Z,102014.66
2022-10-20T05:43:57.186Z,102018.16
2022-10-20T05:46:27.150Z,102015.38
2022-10-20T05:48:58.228Z,102021.16
2022-10-20T05:51:28.865Z,102012.31
2022-10-20T05:54:00.318Z,102013.88
2022-10-20T05:56:30.745Z,102010.56
2022-10-20T05:58:59.813Z,102024.41
2022-10-20T06:01:39.716Z,102018.13
2022-10-20T06:04:09.578Z,102008.69
2022-10-20T06:06:38.525Z,102003.56
2022-10-20T06:09:09.860Z,101991.16
2022-10-20T06:11:39.966Z,102008.31
2022-10-20T06:14:09.576Z,102009.19
2022-10-20T06:16:39.016Z,101999.47
2022-10-20T06:19:07.970Z,101998.56
2022-10-20T06:21:38.755Z,102004.28
2022-10-20T06:24:10.716Z,102002.31
2022-10-20T06:26:40.274Z,102001.34
2022-10-20T06:29:12.050Z,101986.31
2022-10-20T06:31:43.013Z,101987.09
2022-10-20T06:34:14.853Z,101990.91
2022-10-20T06:36:45.026Z,101986.47
2022-10-20T06:39:17.464Z,101997.44
2022-10-20T06:41:50.455Z,102003.28
2022-10-20T06:44:22.844Z,102005.00
2022-10-20T06:46:53.293Z,101998.59
2022-10-20T06:49:22.729Z,102001.19
2022-10-20T06:51:51.833Z,101998.53
2022-10-20T06:54:22.117Z,102010.34
2022-10-20T06:56:51.026Z,102008.75
2022-10-20T06:59:19.982Z,102012.69
2022-10-20T07:01:48.965Z,101998.03
2022-10-20T07:04:18.183Z,102003.75
2022-10-20T07:06:47.877Z,101995.75
2022-10-20T07:09:18.986Z,102000.75
2022-10-20T07:11:52.519Z,102007.34
2022-10-20T07:14:21.920Z,102011.28
2022-10-20T07:16:50.853Z,102006.06
2022-10-20T07:19:19.822Z,101999.47
2022-10-20T07:21:48.783Z,101995.97
2022-10-20T07:24:17.844Z,101995.91
2022-10-20T07:26:48.462Z,101986.03
2022-10-20T07:29:17.487Z,101989.88
2022-10-20T07:31:48.439Z,101991.25
2022-10-20T07:34:25.714Z,101997.47
2022-10-20T07:36:56.254Z,101985.91
2022-10-20T07:39:25.955Z,101985.13
2022-10-20T07:41:56.584Z,101965.78
2022-10-20T07:44:25.507Z,101948.38
2022-10-20T07:46:54.544Z,101946.69
2022-10-20T07:49:43.887Z,101939.72
2022-10-20T07:52:13.002Z,101932.63
2022-10-20T07:54:42.155Z,101927.97
2022-10-20T07:57:12.619Z,101924.16
2022-10-20T07:59:41.766Z,101915.94
2022-10-20T08:02:13.554Z,101924.81
2022-10-20T08:04:44.055Z,101920.44
2022-10-20T08:07:13.177Z,101922.63
2022-10-20T08:09:42.310Z,101918.50
2022-10-20T08:12:12.697Z,101915.66
2022-10-20T08:14:41.658Z,101910.34
2022-10-20T08:17:10.612Z,101898.13
2022-10-20T08:22:25.419Z,101897.88
2022-10-20T08:24:54.999Z,101884.19
2022-10-20T08:27:25.280Z,101877.88
2022-10-20T08:30:06.187Z,101881.84
2022-10-20T08:32:44.470Z,101884.75
2022-10-20T08:35:13.431Z,101878.53
2022-10-20T08:37:42.346Z,101858.84
2022-10-20T08:40:16.147Z,101851.75
2022-10-20T08:42:47.697Z,101846.00
2022-10-20T08:45:19.079Z,101840.81
2022-10-20T08:47:51.322Z,101842.06
2022-10-20T08:50:21.871Z,101834.97
2022-10-20T08:52:55.309Z,101838.31
2022-10-20T08:55:38.616Z,101833.00
2022-10-20T08:58:14.661Z,101819.06
2022-10-20T09:00:44.384Z,101807.97
2022-10-20T09:03:18.514Z,101810.97
2022-10-20T09:05:51.977Z,101816.06
2022-10-20T09:08:22.859Z,101806.03
2022-10-20T09:10:54.960Z,101794.03
2022-10-20T09:13:27.951Z,101784.72
2022-10-20T09:16:03.523Z,101801.41
2022-10-20T09:18:32.862Z,101798.75
2022-10-20T09:21:06.186Z,101795.69
2022-10-20T09:23:42.007Z,101800.25
2022-10-20T09:26:30.339Z,101794.38
2022-10-20T09:29:13.498Z,101793.66
2022-10-20T09:31:44.546Z,101772.03
2022-10-20T09:34:25.228Z,101772.31
2022-10-20T09:36:58.826Z,101763.44
2022-10-20T09:39:30.593Z,101763.00
2022-10-20T09:42:06.657Z,101776.53
2022-10-20T09:44:49.792Z,101772.75
2022-10-20T09:47:20.210Z,101768.88
2022-10-20T09:49:57.091Z,101790.81
2022-10-20T09:52:34.488Z,101775.16
2022-10-20T09:55:07.739Z,101771.38
2022-10-20T09:57:37.169Z,101769.69
2022-10-20T10:00:25.501Z,101777.69
2022-10-20T10:03:21.117Z,101783.56
2022-10-20T10:05:54.637Z,101783.75
2022-10-20T10:08:25.794Z,101768.84
2022-10-20T10:11:03.137Z,101761.72
2022-10-20T10:13:39.899Z,101762.19
2022-10-20T10:16:14.037Z,101762.44
2022-10-20T10:18:48.372Z,101759.69
2022-10-20T10:21:18.493Z,101749.94
2022-10-20T10:23:55.951Z,101756.09
2022-10-20T10:26:43.751Z,101750.63
2022-10-20T10:29:21.037Z,101747.56
2022-10-20T10:31:58.676Z,101741.13
2022-10-20T10:34:44.597Z,101720.16
2022-10-20T10:37:17.182Z,101705.78
2022-10-20T10:39:46.315Z,101726.03
2022-10-20T10:42:43.194Z,101717.31
2022-10-20T10:45:19.622Z,101702.56
2022-10-20T10:48:16.360Z,101689.84
2022-10-20T10:50:52.414Z,101686.88
2022-10-20T10:53:34.134Z,101694.03
2022-10-20T10:56:14.940Z,101687.59
2022-10-20T10:58:48.009Z,101684.94
2022-10-20T11:01:36.014Z,101673.25
2022-10-20T11:04:49.981Z,101658.09
2022-10-20T11:07:30.983Z,101663.94
2022-10-20T11:10:06.870Z,101659.06
2022-10-20T11:13:01.681Z,101638.47
2022-10-20T11:15:52.800Z,101634.91
2022-10-20T11:18:37.465Z,101637.66
2022-10-20T11:21:23.403Z,101633.34
2022-10-20T11:24:07.041Z,101626.41
2022-10-20T11:26:38.596Z,101618.28
2022-10-20T11:29:13.542Z,101619.25
2022-10-20T11:31:47.564Z,101623.53
2022-10-20T11:34:22.139Z,101621.53
2022-10-20T11:37:01.903Z,101620.88
2022-10-20T11:39:38.790Z,101607.19
2022-10-20T11:42:20.474Z,101602.66
2022-10-20T11:44:50.333Z,101602.88
2022-10-20T11:47:26.763Z,101577.50
2022-10-20T11:49:55.788Z,101564.47
2022-10-20T11:53:00.383Z,101575.28
2022-10-20T11:55:56.987Z,101576.72
2022-10-20T11:58:41.637Z,101565.47
2022-10-20T12:01:38.518Z,101556.19
2022-10-20T12:04:38.957Z,101564.56
2022-10-20T12:07:33.767Z,101562.75
2022-10-20T12:10:35.763Z,101567.72
2022-10-20T12:13:25.637Z,101561.63
2022-10-20T12:15:55.022Z,101556.78
2022-10-20T12:18:29.615Z,101553.56
2022-10-20T12:21:01.566Z,101541.38
2022-10-20T12:24:05.487Z,101532.28
2022-10-20T12:27:17.559Z,101525.66
2022-10-20T12:29:58.153Z,101519.47
2022-10-20T12:32:52.693Z,101516.53
2022-10-20T12:35:57.699Z,101502.09
2022-10-20T12:38:27.449Z,101497.22
2022-10-20T12:40:59.955Z,101489.19
2022-10-20T12:43:53.412Z,101484.72
2022-10-20T12:46:27.226Z,101467.66
2022-10-20T12:49:00.094Z,101473.31
2022-10-20T12:51:40.685Z,101465.16
2022-10-20T12:54:22.161Z,101468.91
2022-10-20T12:56:52.002Z,101456.44
2022-10-20T12:59:39.125Z,101449.59
2022-10-20T13:02:45.943Z,101449.84
2022-10-20T13:05:44.397Z,101443.34
2022-10-20T13:08:28.819Z,101441.53
2022-10-20T13:11:18.992Z,101431.78
2022-10-20T13:14:03.836Z,101418.44
2022-10-20T13:16:35.112Z,101425.97
2022-10-20T13:19:09.300Z,101416.34
2022-10-20T13:21:38.543Z,101407.06
2022-10-20T13:24:14.737Z,101399.88
2022-10-20T13:26:54.313Z,101397.34
2022-10-20T13:29:36.910Z,101409.19
2022-10-20T13:32:16.582Z,101413.63
2022-10-20T13:34:52.799Z,101404.69
2022-10-20T13:37:42.684Z,101410.16
2022-10-20T13:40:23.810Z,101409.31
2022-10-20T13:43:08.370Z,101412.25
2022-10-20T13:46:02.064Z,101407.50
2022-10-20T13:48:45.940Z,101396.84
2022-10-20T13:51:20.696Z,101394.78
2022-10-20T13:53:53.882Z,101399.16
2022-10-20T13:56:34.879Z,101384.31
2022-10-20T13:59:08.694Z,101382.53
2022-10-20T14:01:38.987Z,101394.03
2022-10-20T14:04:25.749Z,101388.13
2022-10-20T14:06:54.996Z,101386.97
2022-10-20T14:09:26.166Z,101376.69
2022-10-20T14:11:59.899Z,101377.06
2022-10-20T14:14:30.281Z,101366.56
2022-10-20T14:17:03.795Z,101367.38
2022-10-20T14:19:33.762Z,101371.72
2022-10-20T14:22:17.061Z,101380.69
2022-10-20T14:24:48.339Z,101373.88
2022-10-20T14:27:22.212Z,101372.94
2022-10-20T14:29:52.453Z,101366.97
2022-10-20T14:32:25.010Z,101360.94
2022-10-20T14:34:59.265Z,101361.78
2022-10-20T14:37:32.585Z,101358.31
2022-10-20T14:40:03.353Z,101366.44
2022-10-20T14:42:34.330Z,101345.88
2022-10-20T14:45:04.708Z,101328.34
2022-10-20T14:47:40.372Z,101325.28
2022-10-20T14:50:23.498Z,101325.09
2022-10-20T14:52:54.336Z,101324.53
2022-10-20T14:55:35.094Z,101314.81
2022-10-20T14:58:05.129Z,101318.19
2022-10-20T15:00:37.120Z,101321.41
2022-10-20T15:03:10.455Z,101324.13
2022-10-20T15:05:44.290Z,101318.19
2022-10-20T15:08:25.904Z,101318.31
2022-10-20T15:10:55.122Z,101309.13
2022-10-20T15:13:28.003Z,101313.00
2022-10-20T15:15:58.841Z,101308.94
2022-10-20T15:18:30.272Z,101318.16
2022-10-20T15:20:59.250Z,101328.28
2022-10-20T15:23:29.466Z,101326.97
2022-10-20T15:26:02.844Z,101333.75
2022-10-20T15:28:40.340Z,101339.00
2022-10-20T15:31:18.422Z,101331.63
2022-10-20T15:33:49.124Z,101328.69
2022-10-20T15:36:21.233Z,101328.06
2022-10-20T15:38:51.730Z,101335.84
2022-10-20T15:41:22.931Z,101330.97
2022-10-20T15:43:51.935Z,101317.38
2022-10-20T15:46:21.807Z,101318.56
2022-10-20T15:48:52.118Z,101326.56
2022-10-20T15:51:25.198Z,101308.66
2022-10-20T15:53:54.349Z,101311.88
2022-10-20T15:56:23.649Z,101300.53
2022-10-20T15:58:53.153Z,101308.19
2022-10-20T16:01:23.100Z,101311.19
2022-10-20T16:03:53.550Z,101315.94
2022-10-20T16:06:23.221Z,101315.69
2022-10-20T16:08:52.822Z,101325.38
2022-10-20T16:11:23.141Z,101324.66
2022-10-20T16:13:52.076Z,101333.47
2022-10-20T16:16:21.710Z,101335.03
2022-10-20T16:18:52.091Z,101335.50
2022-10-20T16:21:21.026Z,101333.38
2022-10-20T16:23:49.932Z,101335.63
2022-10-20T16:26:21.018Z,101336.94
2022-10-20T16:28:49.970Z,101327.50
2022-10-20T16:31:18.982Z,101331.31
2022-10-20T16:33:48.656Z,101322.75
2022-10-20T16:36:21.585Z,101320.22
2022-10-20T16:38:55.024Z,101324.28
2022-10-20T16:41:24.180Z,101313.44
2022-10-20T16:43:55.369Z,101317.97
2022-10-20T16:46:27.941Z,101322.00
2022-10-20T16:48:57.165Z,101309.72
2022-10-20T16:51:27.674Z,101309.97
2022-10-20T16:54:00.759Z,101306.41
2022-10-20T16:56:32.201Z,101310.06
2022-10-20T16:59:01.837Z,101315.13
2022-10-20T17:01:31.783Z,101312.84
2022-10-20T17:04:00.804Z,101307.69
2022-10-20T17:06:31.754Z,101306.50
2022-10-20T17:09:01.102Z,101295.41
2022-10-20T17:11:32.340Z,101294.97
2022-10-20T17:14:01.677Z,101287.78
2022-10-20T17:16:32.643Z,101282.56
2022-10-20T17:19:03.254Z,101282.91
2022-10-20T17:21:34.721Z,101273.13
2022-10-20T17:24:04.246Z,101263.25
2022-10-20T17:26:33.393Z,101266.56
2022-10-20T17:29:03.039Z,101260.84
2022-10-20T17:31:32.443Z,101265.28
2022-10-20T17:34:01.682Z,101257.50
2022-10-20T17:36:32.310Z,101250.25
2022-10-20T17:39:03.319Z,101255.00
2022-10-20T17:41:32.459Z,101253.22
2022-10-20T17:44:02.298Z,101256.56
2022-10-20T17:46:31.890Z,101247.25
2022-10-20T17:49:02.069Z,101250.09
2022-10-20T17:51:34.762Z,101241.19
2022-10-20T17:54:04.845Z,101235.22
2022-10-20T17:56:36.394Z,101239.25
2022-10-20T17:59:07.634Z,101232.97
2022-10-20T18:01:39.288Z,101233.19
2022-10-20T18:04:10.673Z,101225.94
2022-10-20T18:06:41.792Z,101224.13
2022-10-20T18:09:12.746Z,101222.69
2022-10-20T18:11:44.184Z,101216.38
2022-10-20T18:14:13.185Z,101215.91
2022-10-20T18:16:42.415Z,101207.69
2022-10-20T18:19:15.656Z,101209.97
2022-10-20T18:21:46.356Z,101199.56
2022-10-20T18:24:17.270Z,101199.56
2022-10-20T18:26:47.418Z,101191.00
2022-10-20T18:29:17.232Z,101200.78
2022-10-20T18:31:48.047Z,101205.31
2022-10-20T18:34:20.493Z,101200.03
2022-10-20T18:36:51.750Z,101198.72
2022-10-20T18:39:20.809Z,101190.47
2022-10-20T18:41:52.632Z,101188.56
2022-10-20T18:44:21.821Z,101187.13
2022-10-20T18:46:51.327Z,101186.16
2022-10-20T18:49:21.532Z,101178.78
2022-10-20T18:51:52.290Z,101173.28
2022-10-20T18:54:23.592Z,101165.09
2022-10-20T18:56:52.756Z,101174.63
2022-10-20T18:59:23.069Z,101173.44
2022-10-20T19:01:52.208Z,101175.31
2022-10-20T19:04:21.225Z,101171.88
2022-10-20T19:06:54.367Z,101173.53
2022-10-20T19:09:23.549Z,101173.53
2022-10-20T19:11:52.610Z,101154.72
2022-10-20T19:14:21.684Z,101158.06
2022-10-20T19:16:51.006Z,101153.06
2022-10-20T19:19:20.253Z,101147.09
2022-10-20T19:21:49.433Z,101147.09
2022-10-20T19:24:21.848Z,101151.72
2022-10-20T19:27:02.436Z,101140.41
2022-10-20T19:29:37.684Z,101142.44
2022-10-20T19:32:07.111Z,101139.81
2022-10-20T19:34:38.103Z,101142.78
2022-10-20T19:37:07.395Z,101139.56
2022-10-20T19:39:39.911Z,101141.25
2022-10-20T19:42:09.618Z,101143.47
2022-10-20T19:44:39.003Z,101147.88
2022-10-20T19:47:19.178Z,101146.66
2022-10-20T19:49:48.234Z,101125.94
2022-10-20T19:52:19.299Z,101124.63
2022-10-20T19:54:49.923Z,101113.78
2022-10-20T19:57:18.919Z,101111.50
2022-10-20T19:59:48.239Z,101096.88
2022-10-20T20:02:17.225Z,101103.03
2022-10-20T20:04:46.253Z,101119.59
2022-10-20T20:07:15.306Z,101126.09
2022-10-20T20:09:44.682Z,101118.47
2022-10-20T20:12:16.735Z,101114.19
2022-10-20T20:14:45.814Z,101100.25
2022-10-20T20:17:17.857Z,101102.19
2022-10-20T20:19:46.912Z,101112.75
2022-10-20T20:22:16.018Z,101115.50
2022-10-20T20:24:45.069Z,101116.72
2022-10-20T20:27:15.404Z,101117.66
2022-10-20T20:29:44.582Z,101110.97
2022-10-20T20:32:13.943Z,101106.56
2022-10-20T20:34:43.212Z,101094.44
2022-10-20T20:37:14.243Z,101086.56
2022-10-20T20:39:43.240Z,101081.47
2022-10-20T20:42:12.182Z,101078.13
2022-10-20T20:44:42.512Z,101063.03
2022-10-20T20:47:11.590Z,101066.72
2022-10-20T20:49:40.589Z,101063.25
2022-10-20T20:52:09.634Z,101059.72
2022-10-20T20:54:38.615Z,101050.91
2022-10-20T20:57:07.602Z,101061.50
2022-10-20T20:59:36.628Z,101063.63
2022-10-20T21:02:07.511Z,101072.69
2022-10-20T21:04:36.619Z,101086.56
2022-10-20T21:07:05.746Z,101084.81
2022-10-20T21:09:34.850Z,101090.88
2022-10-20T21:12:05.342Z,101084.47
2022-10-20T21:14:34.364Z,101082.59
2022-10-20T21:17:03.371Z,101077.34
2022-10-20T21:19:33.664Z,101073.88
2022-10-20T21:22:02.640Z,101064.13
2022-10-20T21:24:31.587Z,101062.34
2022-10-20T21:27:00.604Z,101045.56
2022-10-20T21:29:29.573Z,101037.84
2022-10-20T21:31:58.932Z,101042.25
2022-10-20T21:34:28.563Z,101036.19
2022-10-20T21:36:58.865Z,101044.03
2022-10-20T21:39:28.153Z,101047.16
2022-10-20T21:41:57.269Z,101043.78
2022-10-20T21:44:26.217Z,101062.00
2022-10-20T21:46:55.206Z,101056.78
2022-10-20T21:49:25.366Z,101063.34
2022-10-20T21:51:56.725Z,101055.00
2022-10-20T21:54:28.928Z,101057.72
2022-10-20T21:56:58.266Z,101057.84
2022-10-20T21:59:28.763Z,101045.47
2022-10-20T22:01:58.983Z,101036.06
2022-10-20T22:04:29.637Z,101027.63
2022-10-20T22:06:59.548Z,101021.75
2022-10-20T22:09:30.210Z,101033.06
2022-10-20T22:11:59.577Z,101023.56
2022-10-20T22:14:30.440Z,101024.28
2022-10-20T22:16:59.820Z,101026.19
2022-10-20T22:19:28.897Z,101032.22
2022-10-20T22:21:59.329Z,101050.44
2022-10-20T22:24:30.492Z,101053.06
2022-10-20T22:26:59.621Z,101047.22
2022-10-20T22:29:29.559Z,101035.81
2022-10-20T22:31:58.528Z,101028.22
2022-10-20T22:34:27.487Z,101028.56
2022-10-20T22:36:56.407Z,101028.75
2022-10-20T22:39:25.427Z,101021.88
2022-10-20T22:41:55.732Z,101032.69
2022-10-20T22:44:24.723Z,101035.28
2022-10-20T22:46:53.644Z,101045.03
2022-10-20T22:49:22.585Z,101035.75
2022-10-20T22:51:51.569Z,101028.84
2022-10-20T22:54:20.645Z,101041.34
2022-10-20T22:56:52.513Z,101039.66
2022-10-20T22:59:22.859Z,101035.84
2022-10-20T23:01:51.847Z,101031.53
2022-10-20T23:04:21.639Z,101031.78
2022-10-20T23:06:50.730Z,101029.38
2022-10-20T23:09:19.752Z,101031.28
2022-10-20T23:11:48.716Z,101033.88
2022-10-20T23:14:17.735Z,101039.34
2022-10-20T23:16:48.067Z,101039.13
2022-10-20T23:19:17.060Z,101036.59
2022-10-20T23:21:46.063Z,101031.88
2022-10-20T23:24:15.090Z,101031.59
2022-10-20T23:26:44.425Z,101039.56
2022-10-20T23:29:13.473Z,101039.06
2022-10-20T23:31:42.363Z,101036.34
2022-10-20T23:34:12.657Z,101031.09
2022-10-20T23:36:41.712Z,101044.41
2022-10-20T23:39:10.873Z,101043.34
2022-10-20T23:41:39.844Z,101040.00
2022-10-20T23:44:09.347Z,101036.91
2022-10-20T23:46:38.441Z,101051.53
2022-10-20T23:49:07.888Z,101046.78
2022-10-20T23:51:38.203Z,101044.19
2022-10-20T23:54:07.219Z,101037.06
2022-10-20T23:56:36.169Z,101036.34
2022-10-20T23:59:05.317Z,101045.16
